• Join FlightAware (Why Join?)
  • Login
  • US Flag GB Flag 
16:46 EST


 

Airport Tracker/Info


-or-


 

Live Flight TrackerFlight Track Log ✈ ASA525 ✈ 04-May-2013 ✈ KBUR - KSEA

Flight Track Log - Related Links

Times and Time Zones

All times are in EDT time to prevent confusion due to time zone crossing. See the ASA525 flight status page for this flight to view local times or setup timezone preferences in your user account.

Time Position Orientation Groundspeed Altitude Reporting Facility
EDT Latitude Longitude Course Direction KTS MPH feet Rate Location/Type
14:04 34.1794 -118.3603 224° Southwest 169 194 2,100  Level Los Angeles Center
14:05 34.1383 -118.4083 224° Southwest 210 242 3,800 2,220 Climbing Los Angeles Center
14:06 34.1531 -118.4753 285° West 253 291 6,700 3,120 Climbing Los Angeles Center
14:07 34.2333 -118.5281 331° Northwest 278 320 10,300 3,180 Climbing Los Angeles Center
14:08 34.3078 -118.5711 334° Northwest 292 336 13,300 2,160 Climbing Los Angeles Center
14:09 34.3858 -118.6169 334° Northwest 309 356 14,800 1,260 Climbing Los Angeles Center
14:10 34.4653 -118.6617 335° Northwest 316 364 16,000 780 Climbing Los Angeles Center
14:11 34.5442 -118.7086 334° Northwest 317 365 16,500 1,440 Climbing Los Angeles Center
14:12 34.6403 -118.7650 334° Northwest 322 371 19,100 2,100 Climbing Los Angeles Center
14:13 34.7217 -118.8150 333° Northwest 327 376 20,900 1,740 Climbing Los Angeles Center
14:14 34.8064 -118.8642 335° Northwest 332 382 22,700 1,560 Climbing Los Angeles Center
14:16 34.9086 -118.9036 342° North 368 423 24,200 1,800 Climbing Los Angeles Center
14:17 35.0164 -118.9389 345° North 399 459 26,500 1,980 Climbing Los Angeles Center
14:18 35.1306 -118.9706 347° North 415 478 28,400 2,400 Climbing Los Angeles Center
14:19 35.2708 -119.0106 347° North 429 494 31,500 2,460 Climbing Los Angeles Center
14:20 35.3833 -119.0433 347° North 424 488 33,500 1,200 Climbing Los Angeles Center
14:21 35.4961 -119.0781 346° North 420 483 34,000 240 Climbing Los Angeles Center
14:22 35.6092 -119.1111 347° North 419 482 34,000  Level Los Angeles Center
14:22 35.6769 -119.1317 346° North 426 490 34,000  Level Oakland Center
14:23 35.7897 -119.1653 346° North 421 484 34,000  Level Oakland Center
14:24 35.9022 -119.1983 347° North 419 482 34,000  Level Oakland Center
14:25 36.0172 -119.2333 346° North 425 489 34,000  Level Oakland Center
14:26 36.1303 -119.2650 347° North 422 486 34,000  Level Oakland Center
14:27 36.2417 -119.2981 347° North 419 482 34,000  Level Oakland Center
14:28 36.3528 -119.3342 345° North 413 475 34,000  Level Oakland Center
14:29 36.4642 -119.3692 346° North 416 479 34,000  Level Oakland Center
14:30 36.5967 -119.4072 347° North 411 473 34,000  Level Oakland Center
14:31 36.7081 -119.4411 346° North 413 475 34,000  Level Oakland Center
14:32 36.8211 -119.4756 346° North 416 479 34,000  Level Oakland Center
14:33 36.9322 -119.5097 346° North 415 478 34,000  Level Oakland Center
14:34 37.0436 -119.5442 346° North 411 473 34,000  Level Oakland Center
14:36 37.1547 -119.5786 346° North 412 474 34,000  Level Oakland Center
14:37 37.2664 -119.6139 346° North 415 478 34,000  Level Oakland Center
14:38 37.3928 -119.6522 346° North 413 475 34,000  Level Oakland Center
14:39 37.5044 -119.6861 346° North 413 475 34,000  Level Oakland Center
14:40 37.6167 -119.7203 346° North 416 479 34,000  Level Oakland Center
14:41 37.7281 -119.7533 347° North 417 480 34,000  Level Oakland Center
14:42 37.8403 -119.7889 346° North 417 480 34,000  Level Oakland Center
14:43 37.9539 -119.8231 347° North 420 483 34,000  Level Oakland Center
14:44 38.0681 -119.8572 347° North 421 484 34,000  Level Oakland Center
14:45 38.1975 -119.9011 345° North 406 467 34,000  Level Oakland Center
14:46 38.3072 -119.9356 346° North 406 467 34,000  Level Oakland Center
14:47 38.4183 -119.9703 346° North 410 472 34,000  Level Oakland Center
14:48 38.5308 -120.0058 346° North 417 480 34,000  Level Oakland Center
14:49 38.6422 -120.0419 346° North 415 478 34,000  Level Oakland Center
14:50 38.7525 -120.0778 346° North 410 472 34,000  Level Oakland Center
14:51 38.8617 -120.1136 346° North 408 470 34,000  Level Oakland Center
14:52 38.9708 -120.1483 346° North 407 468 34,000  Level Oakland Center
14:53 39.1031 -120.1897 346° North 409 471 34,000  Level Oakland Center
14:54 39.2131 -120.2267 345° North 408 470 34,000  Level Oakland Center
14:55 39.3208 -120.2619 346° North 404 465 34,000  Level Oakland Center
14:56 39.4303 -120.2981 346° North 405 466 34,000  Level Oakland Center
14:57 39.5381 -120.3325 346° North 402 463 34,000  Level Oakland Center
14:58 39.6475 -120.3689 346° North 404 465 34,000  Level Oakland Center
14:59 39.7564 -120.4047 346° North 405 466 34,000  Level Oakland Center
15:00 39.8664 -120.4411 346° North 406 467 34,000  Level Oakland Center
15:01 39.9764 -120.4778 346° North 409 471 34,000  Level Oakland Center
15:02 40.0914 -120.5156 346° North 409 471 34,000  Level Oakland Center
15:03 40.2208 -120.5597 345° North 404 465 34,000  Level Oakland Center
15:04 40.3294 -120.5956 346° North 403 464 34,000  Level Oakland Center
15:05 40.4367 -120.6328 345° North 397 457 34,000  Level Oakland Center
15:06 40.5433 -120.6672 346° North 394 453 34,000  Level Oakland Center
15:07 40.6578 -120.7064 345° North 406 467 34,000  Level Oakland Center
15:08 40.7658 -120.7444 345° North 404 465 34,000  Level Oakland Center
15:09 40.8711 -120.7794 346° North 391 450 34,000  Level Oakland Center
15:10 40.9778 -120.8164 345° North 392 451 34,000  Level Oakland Center
15:11 41.0850 -120.8531 346° North 396 456 34,000  Level Oakland Center
15:12 41.2144 -120.8986 345° North 400 460 34,000  Level Seattle Center
15:13 41.3208 -120.9358 345° North 398 458 34,000  Level Seattle Center
15:14 41.4275 -120.9739 345° North 396 456 34,000  Level Seattle Center
15:15 41.5339 -121.0111 345° North 397 457 34,000  Level Seattle Center
15:16 41.6406 -121.0483 345° North 397 457 34,000  Level Seattle Center
15:17 41.7469 -121.0872 345° North 398 458 34,000  Level Seattle Center
15:18 41.8517 -121.1225 346° North 391 450 34,000  Level Seattle Center
15:20 41.9561 -121.1606 345° North 391 450 34,000  Level Seattle Center
15:21 42.0581 -121.1958 346° North 382 440 34,000  Level Seattle Center
15:22 42.1622 -121.2336 345° North 390 449 34,000  Level Seattle Center
15:23 42.2831 -121.2769 345° North 380 437 34,000  Level Seattle Center
15:24 42.3853 -121.3133 345° North 382 440 34,000  Level Seattle Center
15:25 42.4861 -121.3503 345° North 378 435 34,000  Level Seattle Center
15:26 42.5861 -121.3853 346° North 375 432 34,000  Level Seattle Center
15:27 42.6856 -121.4211 345° North 371 427 34,000  Level Seattle Center
15:28 42.7836 -121.4567 345° North 365 420 34,000  Level Seattle Center
15:29 42.8831 -121.4925 345° North 370 426 34,000  Level Seattle Center
15:30 42.9831 -121.5278 346° North 372 428 34,000  Level Seattle Center
15:31 43.0842 -121.5669 344° North 376 433 34,000  Level Seattle Center
15:32 43.1847 -121.6036 345° North 376 433 34,000  Level Seattle Center
15:33 43.2847 -121.6414 345° North 374 430 34,000  Level Seattle Center
15:34 43.4006 -121.6828 345° North 364 419 34,000  Level Seattle Center
15:35 43.4994 -121.7211 344° North 366 421 34,000  Level Seattle Center
15:36 43.5956 -121.7586 344° North 361 415 34,000  Level Seattle Center
15:37 43.6917 -121.7925 346° North 358 412 34,000  Level Seattle Center
15:38 43.7853 -121.8275 345° North 350 403 34,000  Level Seattle Center
15:39 43.8856 -121.8633 346° North 349 402 34,000  Level Seattle Center
15:40 43.9706 -121.8950 345° North 350 403 34,000  Level Seattle Center
15:41 44.0658 -121.9317 345° North 354 407 34,000  Level Seattle Center
15:42 44.1631 -121.9675 345° North 359 413 34,000  Level Seattle Center
15:43 44.2792 -122.0128 344° North 361 415 34,000  Level Seattle Center
15:44 44.3731 -122.0489 345° North 355 409 34,000  Level Seattle Center
15:45 44.4686 -122.0853 345° North 356 410 34,000  Level Seattle Center
15:46 44.5633 -122.1228 344° North 356 410 34,000  Level Seattle Center
15:47 44.6583 -122.1597 345° North 356 410 34,000  Level Seattle Center
15:48 44.7517 -122.1953 345° North 350 403 34,000  Level Seattle Center
15:49 44.8458 -122.2331 344° North 352 405 34,000  Level Seattle Center
15:50 44.9483 -122.2747 344° North 351 404 34,000  Level Seattle Center
15:51 45.0456 -122.3117 345° North 359 413 34,000  Level Seattle Center
15:52 45.1392 -122.3494 344° North 356 410 34,000  Level Seattle Center
15:53 45.2333 -122.3850 345° North 354 407 34,000  Level Seattle Center
15:54 45.3272 -122.4222 344° North 354 407 34,000  Level Seattle Center
15:55 45.4219 -122.4597 344° North 355 409 34,000  Level Seattle Center
15:56 45.5158 -122.4978 344° North 354 407 34,000  Level Seattle Center
15:57 45.6122 -122.5358 345° North 360 414 34,000  Level Seattle Center
15:58 45.7264 -122.5839 344° North 358 412 34,000 -960 Level Seattle Center
15:59 45.8239 -122.6089 350° North 357 411 32,100 -2,340 Descending Seattle Center
16:00 45.9239 -122.6319 351° North 365 420 29,300 -2,520 Descending Seattle Center
16:01 46.0222 -122.6597 349° North 364 419 27,000 -2,160 Descending Seattle Center
16:02 46.1158 -122.6828 350° North 347 399 25,000 -1,800 Descending Seattle Center
16:03 46.2094 -122.7011 352° North 332 382 23,400 -1,560 Descending Seattle Center
16:04 46.2972 -122.7192 352° North 324 373 21,900 -1,500 Descending Seattle Center
16:05 46.3842 -122.7231 358° North 318 366 20,400 -1,500 Descending Seattle Center
16:06 46.4714 -122.7186 North 316 364 18,900 -1,380 Descending Seattle Center
16:07 46.5581 -122.7133 North 317 365 17,600 -1,380 Descending Seattle Center
16:08 46.6425 -122.7108 North 308 354 16,100 -1,680 Descending Seattle Center
16:09 46.7011 -122.7092 North 307 353 15,000 -1,800 Descending Seattle Center
16:09 46.7472 -122.7067 North 307 353 14,300 -1,440 Descending Seattle Center
16:10 46.8269 -122.6931 North 283 326 12,900 -1,380 Descending Seattle Center
16:11 46.8808 -122.6183 43° Northeast 265 305 11,600 -1,200 Descending Seattle Center
16:12 46.9311 -122.5492 43° Northeast 250 288 10,500 -1,140 Descending Seattle Center
16:13 46.9783 -122.4864 42° Northeast 230 265 9,400 -1,080 Descending Seattle Center
16:14 47.0242 -122.4322 39° Northeast 215 247 8,400 -1,140 Descending Seattle Center
16:15 47.0803 -122.3856 30° Northeast 215 247 7,200 -1,380 Descending Seattle Center
16:16 47.1419 -122.3519 20° North 239 275 5,700 -1,500 Descending Seattle Center
16:17 47.2094 -122.3356 North 245 282 4,200 -960 Descending Seattle Center
16:18 47.2742 -122.3203 North 232 267 3,800 -660 Descending Seattle Center
16:20 47.3289 -122.3206 360° North 199 229 2,900 -960 Descending Seattle Center
16:21 47.3756 -122.3203 360° North 138 159 1,900 -960 Descending Seattle Center
16:22 47.4150 -122.3183 North 118 136 900 -840 Descending Seattle Center
16:23 47.4442 -122.3183 360° North 122 140 300 -720 Descending Seattle Center
16:25 47.4499 -122.3118 132° Southeast  Level Estimated